createdAt,value
2023-02-15T00:01:55.526Z,33.90
2023-02-15T00:04:50.030Z,33.90
2023-02-15T00:07:44.279Z,33.90
2023-02-15T00:10:38.528Z,34.00
2023-02-15T00:13:32.943Z,34.00
2023-02-15T00:16:27.122Z,34.10
2023-02-15T00:19:23.351Z,34.20
2023-02-15T00:22:17.737Z,34.20
2023-02-15T00:25:12.047Z,34.30
2023-02-15T00:28:06.956Z,34.30
2023-02-15T00:31:13.769Z,34.40
2023-02-15T00:34:17.460Z,34.40
2023-02-15T00:37:11.887Z,34.50
2023-02-15T00:40:06.586Z,34.60
2023-02-15T00:43:00.893Z,34.70
2023-02-15T00:45:55.552Z,34.80
2023-02-15T00:48:50.028Z,34.90
2023-02-15T00:51:44.236Z,34.90
2023-02-15T00:54:38.743Z,35.00
2023-02-15T00:57:33.104Z,35.20
2023-02-15T01:00:27.443Z,35.20
2023-02-15T01:03:23.472Z,35.40
2023-02-15T01:06:19.342Z,35.50
2023-02-15T01:09:14.815Z,35.60
2023-02-15T01:12:09.072Z,35.70
2023-02-15T01:15:03.491Z,35.80
2023-02-15T01:17:58.084Z,35.90
2023-02-15T01:20:52.392Z,36.00
2023-02-15T01:23:49.651Z,35.90
2023-02-15T01:26:43.964Z,36.00
2023-02-15T01:29:38.300Z,36.10
2023-02-15T01:32:32.890Z,36.20
2023-02-15T01:35:27.405Z,36.20
2023-02-15T01:38:21.631Z,36.30
2023-02-15T01:41:31.809Z,36.30
2023-02-15T01:45:01.019Z,36.30
2023-02-15T01:47:58.720Z,36.40
2023-02-15T01:51:00.732Z,36.50
2023-02-15T01:54:02.075Z,36.50
2023-02-15T01:57:00.683Z,36.60
2023-02-15T02:00:01.199Z,36.60
2023-02-15T02:02:59.328Z,36.60
2023-02-15T02:05:53.585Z,36.60
2023-02-15T02:08:48.932Z,36.50
2023-02-15T02:11:44.053Z,36.50
2023-02-15T02:14:40.183Z,36.50
2023-02-15T02:18:03.829Z,36.60
2023-02-15T02:21:35.056Z,36.70
2023-02-15T02:24:41.682Z,36.90
2023-02-15T02:27:51.336Z,37.00
2023-02-15T02:31:19.567Z,37.00
2023-02-15T02:34:33.352Z,37.00
2023-02-15T02:37:51.314Z,37.10
2023-02-15T02:41:12.230Z,37.10
2023-02-15T02:44:40.188Z,37.30
2023-02-15T02:47:37.223Z,37.30
2023-02-15T02:50:33.354Z,37.40
2023-02-15T02:53:28.368Z,37.50
2023-02-15T02:56:40.345Z,37.50
2023-02-15T02:59:39.574Z,37.50
2023-02-15T03:02:40.860Z,37.60
2023-02-15T03:05:38.961Z,37.70
2023-02-15T03:08:46.499Z,37.70
2023-02-15T03:11:40.832Z,37.70
2023-02-15T03:14:35.095Z,37.70
2023-02-15T03:17:33.607Z,37.80
2023-02-15T03:20:33.455Z,37.80
2023-02-15T03:23:29.927Z,37.90
2023-02-15T03:26:24.516Z,37.90
2023-02-15T03:29:21.868Z,38.00
2023-02-15T03:32:17.550Z,38.00
2023-02-15T03:35:12.404Z,38.10
2023-02-15T03:38:10.313Z,38.00
2023-02-15T03:41:11.706Z,37.90
2023-02-15T03:44:33.627Z,37.90
2023-02-15T03:47:33.885Z,38.00
2023-02-15T03:50:52.033Z,38.10
2023-02-15T03:53:49.925Z,38.20
2023-02-15T03:57:04.843Z,38.20
2023-02-15T04:00:22.288Z,38.20
2023-02-15T04:03:55.925Z,38.20
2023-02-15T04:06:50.970Z,38.40
2023-02-15T04:10:03.725Z,38.30
2023-02-15T04:12:59.060Z,38.30
2023-02-15T04:16:06.418Z,38.10
2023-02-15T04:19:19.371Z,38.10
2023-02-15T04:22:32.304Z,38.20
2023-02-15T04:25:27.977Z,38.20
2023-02-15T04:28:22.707Z,38.10
2023-02-15T04:31:17.234Z,38.10
2023-02-15T04:34:12.966Z,38.10
2023-02-15T04:37:07.321Z,38.00
2023-02-15T04:40:02.026Z,38.10
2023-02-15T04:42:56.519Z,38.10
2023-02-15T04:45:52.700Z,38.20
2023-02-15T04:48:47.263Z,38.20
2023-02-15T04:51:41.798Z,38.30
2023-02-15T04:54:36.462Z,38.30
2023-02-15T04:57:30.884Z,38.40
2023-02-15T05:00:25.416Z,38.40
2023-02-15T05:03:19.796Z,38.40
2023-02-15T05:06:14.087Z,38.50
2023-02-15T05:09:08.488Z,38.60
2023-02-15T05:12:03.214Z,38.70
2023-02-15T05:14:57.617Z,38.70
2023-02-15T05:17:52.483Z,38.60
2023-02-15T05:20:46.969Z,38.60
2023-02-15T05:23:41.853Z,38.50
2023-02-15T05:26:54.745Z,38.50
2023-02-15T05:29:49.303Z,38.50
2023-02-15T05:32:44.071Z,38.60
2023-02-15T05:35:38.798Z,38.50
2023-02-15T05:38:33.444Z,38.50
2023-02-15T05:41:27.864Z,38.50
2023-02-15T05:44:22.161Z,38.60
2023-02-15T05:47:16.541Z,38.60
2023-02-15T05:50:12.314Z,38.60
2023-02-15T05:53:06.935Z,38.70
2023-02-15T05:56:02.389Z,38.70
2023-02-15T05:58:57.296Z,38.70
2023-02-15T06:01:52.044Z,38.70
2023-02-15T06:04:46.569Z,38.70
2023-02-15T06:07:41.150Z,38.70
2023-02-15T06:10:35.544Z,38.70
2023-02-15T06:13:30.308Z,38.70
2023-02-15T06:16:25.040Z,38.80
2023-02-15T06:19:19.730Z,38.80
2023-02-15T06:22:16.264Z,38.80
2023-02-15T06:25:12.275Z,38.80
2023-02-15T06:28:06.715Z,38.80
2023-02-15T06:31:01.248Z,38.70
2023-02-15T06:34:03.046Z,38.70
2023-02-15T06:36:57.242Z,38.70
2023-02-15T06:39:51.468Z,38.70
2023-02-15T06:42:46.506Z,38.80
2023-02-15T06:45:41.080Z,38.70
2023-02-15T06:48:35.290Z,38.80
2023-02-15T06:51:29.661Z,38.80
2023-02-15T06:54:23.951Z,38.90
2023-02-15T06:57:18.674Z,38.90
2023-02-15T07:00:13.570Z,38.90
2023-02-15T07:03:09.318Z,38.90
2023-02-15T07:06:08.573Z,38.80
2023-02-15T07:09:03.161Z,38.80
2023-02-15T07:12:15.720Z,38.80
2023-02-15T07:15:11.395Z,38.80
2023-02-15T07:18:07.368Z,38.80
2023-02-15T07:21:01.698Z,38.80
2023-02-15T07:23:58.603Z,38.70
2023-02-15T07:26:53.035Z,38.70
2023-02-15T07:29:47.697Z,38.70
2023-02-15T07:33:04.631Z,38.70
2023-02-15T07:36:02.041Z,38.70
2023-02-15T07:38:56.669Z,38.60
2023-02-15T07:41:51.397Z,38.60
2023-02-15T07:44:45.762Z,38.70
2023-02-15T07:47:40.444Z,38.60
2023-02-15T07:50:35.496Z,38.60
2023-02-15T07:53:30.329Z,38.60
2023-02-15T07:56:24.735Z,38.50
2023-02-15T07:59:19.173Z,38.50
2023-02-15T08:02:18.193Z,38.50
2023-02-15T08:05:12.817Z,38.50
2023-02-15T08:08:08.192Z,38.50
2023-02-15T08:11:23.727Z,38.40
2023-02-15T08:14:20.812Z,38.50
2023-02-15T08:17:15.208Z,38.40
2023-02-15T08:20:10.786Z,38.30
2023-02-15T08:23:05.385Z,38.30
2023-02-15T08:26:03.279Z,38.30
2023-02-15T08:28:59.404Z,38.20
2023-02-15T08:31:57.016Z,38.20
2023-02-15T08:34:51.546Z,38.10
2023-02-15T08:37:46.041Z,38.00
2023-02-15T08:40:40.399Z,37.90
2023-02-15T08:43:34.744Z,37.80
2023-02-15T08:46:32.280Z,37.80
2023-02-15T08:49:26.891Z,37.70
2023-02-15T08:52:21.224Z,37.70
2023-02-15T08:55:15.628Z,37.60
2023-02-15T08:58:09.987Z,37.50
2023-02-15T09:01:10.644Z,37.40
2023-02-15T09:04:07.630Z,37.30
2023-02-15T09:07:02.087Z,37.30
2023-02-15T09:09:56.534Z,37.20
2023-02-15T09:12:52.405Z,37.10
2023-02-15T09:15:47.089Z,36.90
2023-02-15T09:18:42.329Z,36.80
2023-02-15T09:21:39.087Z,36.70
2023-02-15T09:24:36.767Z,36.60
2023-02-15T09:27:31.990Z,36.50
2023-02-15T09:30:26.379Z,36.40
2023-02-15T09:33:20.734Z,36.20
2023-02-15T09:36:23.702Z,36.10
2023-02-15T09:39:21.071Z,35.90
2023-02-15T09:42:40.286Z,35.70
2023-02-15T09:46:07.677Z,35.50
2023-02-15T09:49:40.192Z,35.30
2023-02-15T09:52:43.993Z,35.10
2023-02-15T09:56:12.398Z,35.00
2023-02-15T09:59:14.786Z,34.80
2023-02-15T10:02:38.136Z,34.60
2023-02-15T10:05:46.669Z,34.40
2023-02-15T10:08:50.080Z,34.20
2023-02-15T10:12:23.872Z,34.10
2023-02-15T10:15:59.722Z,33.90
2023-02-15T10:19:10.415Z,33.80
2023-02-15T10:22:35.466Z,33.60
2023-02-15T10:25:42.274Z,33.50
2023-02-15T10:28:51.622Z,33.40
2023-02-15T10:31:55.426Z,33.30
2023-02-15T10:35:20.094Z,33.20
2023-02-15T10:38:27.253Z,33.10
2023-02-15T10:41:39.907Z,32.90
2023-02-15T10:45:11.584Z,32.90
2023-02-15T10:48:35.789Z,32.80
2023-02-15T10:51:43.669Z,32.70
2023-02-15T10:55:08.493Z,32.60
2023-02-15T10:58:27.911Z,32.50
2023-02-15T11:01:32.869Z,32.50
2023-02-15T11:04:56.242Z,32.40
2023-02-15T11:07:53.563Z,32.30
2023-02-15T11:10:50.390Z,32.20
2023-02-15T11:13:49.958Z,32.10
2023-02-15T11:16:49.442Z,32.00
2023-02-15T11:19:58.148Z,31.90
2023-02-15T11:22:55.564Z,31.80
2023-02-15T11:26:00.100Z,31.80
2023-02-15T11:29:19.595Z,31.70
2023-02-15T11:32:35.391Z,31.60
2023-02-15T11:35:34.223Z,31.50
2023-02-15T11:38:34.186Z,31.40
2023-02-15T11:41:40.226Z,31.30
2023-02-15T11:45:28.510Z,31.30
2023-02-15T11:48:23.266Z,31.30
2023-02-15T11:51:24.044Z,31.20
2023-02-15T11:54:20.045Z,31.00
2023-02-15T11:57:54.872Z,30.90
2023-02-15T12:00:57.553Z,30.80
2023-02-15T12:04:07.060Z,30.70
2023-02-15T12:07:04.640Z,30.50
2023-02-15T12:10:13.967Z,30.50
2023-02-15T12:13:17.762Z,30.50
2023-02-15T12:16:15.333Z,30.40
2023-02-15T12:19:36.813Z,30.50
2023-02-15T12:22:35.134Z,30.50
2023-02-15T12:25:38.235Z,30.50
2023-02-15T12:28:40.730Z,30.50
2023-02-15T12:31:41.217Z,30.40
2023-02-15T12:34:44.932Z,30.40
2023-02-15T12:37:39.933Z,30.40
2023-02-15T12:40:37.792Z,30.40
2023-02-15T12:43:40.651Z,30.40
2023-02-15T12:46:39.504Z,30.40
2023-02-15T12:49:47.597Z,30.40
2023-02-15T12:52:42.234Z,30.40
2023-02-15T12:55:36.709Z,30.40
2023-02-15T12:58:33.137Z,30.40
2023-02-15T13:01:28.588Z,30.30
2023-02-15T13:04:30.374Z,30.30
2023-02-15T13:07:27.053Z,30.30
2023-02-15T13:10:44.942Z,30.30
2023-02-15T13:13:54.718Z,30.20
2023-02-15T13:16:51.921Z,30.20
2023-02-15T13:19:58.914Z,30.10
2023-02-15T13:23:07.236Z,30.00
2023-02-15T13:26:07.767Z,29.90
2023-02-15T13:29:10.812Z,29.70
2023-02-15T13:32:31.188Z,29.70
2023-02-15T13:35:27.476Z,29.70
2023-02-15T13:38:52.736Z,29.70
2023-02-15T13:41:49.903Z,29.70
2023-02-15T13:44:54.006Z,29.70
2023-02-15T13:47:55.869Z,29.70
2023-02-15T13:51:11.587Z,29.60
2023-02-15T13:54:24.057Z,29.60
2023-02-15T13:57:53.704Z,29.50
2023-02-15T14:00:51.654Z,29.40
2023-02-15T14:04:01.349Z,29.40
2023-02-15T14:07:10.769Z,29.30
2023-02-15T14:10:37.434Z,29.20
2023-02-15T14:13:58.504Z,29.20
2023-02-15T14:17:17.183Z,29.20
2023-02-15T14:20:52.966Z,29.00
2023-02-15T14:24:12.080Z,28.90
2023-02-15T14:27:29.300Z,28.90
2023-02-15T14:30:29.544Z,28.80
2023-02-15T14:33:45.656Z,28.80
2023-02-15T14:36:40.005Z,28.70
2023-02-15T14:40:08.271Z,28.70
2023-02-15T14:43:11.239Z,28.60
2023-02-15T14:46:30.204Z,28.50
2023-02-15T14:49:35.252Z,28.50
2023-02-15T14:52:29.787Z,28.50
2023-02-15T14:55:38.880Z,28.40
2023-02-15T14:58:33.214Z,28.40
2023-02-15T15:01:37.483Z,28.30
2023-02-15T15:04:48.109Z,28.20
2023-02-15T15:07:46.866Z,28.20
2023-02-15T15:10:47.639Z,28.20
2023-02-15T15:13:54.881Z,28.10
2023-02-15T15:16:53.820Z,28.10
2023-02-15T15:19:53.987Z,28.00
2023-02-15T15:22:48.561Z,28.00
2023-02-15T15:26:00.147Z,27.90
2023-02-15T15:28:54.507Z,27.90
2023-02-15T15:31:55.292Z,27.80
2023-02-15T15:35:03.575Z,27.80
2023-02-15T15:38:14.358Z,27.70
2023-02-15T15:41:44.416Z,27.70
2023-02-15T15:45:00.104Z,27.60
2023-02-15T15:48:24.446Z,27.50
2023-02-15T15:51:21.827Z,27.50
2023-02-15T15:54:34.071Z,27.40
2023-02-15T15:57:43.917Z,27.40
2023-02-15T16:00:54.829Z,27.40
2023-02-15T16:03:54.812Z,27.30
2023-02-15T16:06:48.993Z,27.30
2023-02-15T16:09:43.447Z,27.30
2023-02-15T16:12:43.378Z,27.30
2023-02-15T16:15:51.822Z,27.30
2023-02-15T16:18:46.252Z,27.30
2023-02-15T16:21:40.935Z,27.20
2023-02-15T16:24:53.915Z,27.20
2023-02-15T16:27:49.524Z,27.10
2023-02-15T16:30:44.999Z,27.10
2023-02-15T16:33:41.419Z,27.10
2023-02-15T16:36:35.823Z,27.10
2023-02-15T16:39:30.033Z,27.10
2023-02-15T16:42:24.808Z,27.00
2023-02-15T16:45:22.312Z,27.00
2023-02-15T16:48:26.170Z,27.00
2023-02-15T16:51:30.063Z,27.00
2023-02-15T16:54:26.486Z,27.00
2023-02-15T16:57:27.383Z,27.00
2023-02-15T17:00:25.712Z,27.00
2023-02-15T17:03:20.531Z,26.90
2023-02-15T17:06:28.418Z,26.90
2023-02-15T17:09:27.649Z,26.90
2023-02-15T17:13:04.386Z,26.90
2023-02-15T17:16:04.536Z,26.80
2023-02-15T17:19:01.076Z,26.80
2023-02-15T17:22:05.359Z,26.80
2023-02-15T17:25:06.699Z,26.80
2023-02-15T17:28:01.533Z,26.80
2023-02-15T17:30:57.801Z,26.80
2023-02-15T17:33:52.965Z,26.70
2023-02-15T17:37:04.573Z,26.70
2023-02-15T17:40:00.104Z,26.70
2023-02-15T17:42:55.059Z,26.70
2023-02-15T17:45:53.646Z,26.70
2023-02-15T17:48:51.825Z,26.80
2023-02-15T17:51:46.200Z,26.80
2023-02-15T17:54:58.402Z,26.80
2023-02-15T17:57:52.853Z,26.80
2023-02-15T18:01:11.312Z,26.80
2023-02-15T18:04:23.988Z,26.90
2023-02-15T18:07:38.576Z,26.90
2023-02-15T18:10:51.061Z,26.90
2023-02-15T18:13:45.351Z,27.00
2023-02-15T18:16:46.915Z,27.10
2023-02-15T18:19:44.201Z,27.20
2023-02-15T18:22:38.293Z,27.20
2023-02-15T18:25:32.732Z,27.30
2023-02-15T18:28:27.302Z,27.40
2023-02-15T18:31:22.971Z,27.40
2023-02-15T18:34:29.789Z,27.50
2023-02-15T18:37:24.764Z,27.50
2023-02-15T18:40:24.756Z,27.60
2023-02-15T18:43:19.131Z,27.60
2023-02-15T18:46:14.821Z,27.60
2023-02-15T18:49:09.150Z,27.70
2023-02-15T18:52:04.579Z,27.70
2023-02-15T18:55:02.833Z,27.70
2023-02-15T18:57:59.127Z,27.70
2023-02-15T19:00:54.182Z,27.70
2023-02-15T19:03:50.686Z,27.70
2023-02-15T19:06:48.138Z,27.80
2023-02-15T19:09:42.830Z,27.80
2023-02-15T19:12:37.560Z,27.80
2023-02-15T19:15:32.657Z,27.80
2023-02-15T19:18:27.638Z,27.70
2023-02-15T19:21:22.238Z,27.70
2023-02-15T19:24:23.774Z,27.70
2023-02-15T19:27:36.233Z,27.70
2023-02-15T19:30:33.066Z,27.70
2023-02-15T19:33:27.526Z,27.70
2023-02-15T19:36:24.066Z,27.70
2023-02-15T19:39:27.193Z,27.70
2023-02-15T19:42:24.731Z,27.70
2023-02-15T19:45:23.561Z,27.70
2023-02-15T19:48:17.710Z,27.70
2023-02-15T19:51:14.889Z,27.70
2023-02-15T19:54:32.182Z,27.70
2023-02-15T19:57:26.509Z,27.70
2023-02-15T20:00:23.792Z,27.70
2023-02-15T20:03:18.798Z,27.60
2023-02-15T20:06:16.882Z,27.60
2023-02-15T20:09:25.352Z,27.60
2023-02-15T20:12:30.729Z,27.60
2023-02-15T20:15:30.500Z,27.60
2023-02-15T20:18:24.788Z,27.50
2023-02-15T20:21:20.561Z,27.50
2023-02-15T20:24:23.932Z,27.50
2023-02-15T20:27:21.670Z,27.60
2023-02-15T20:30:25.091Z,27.60
2023-02-15T20:33:21.056Z,27.60
2023-02-15T20:36:23.174Z,27.60
2023-02-15T20:39:21.760Z,27.60
2023-02-15T20:42:17.094Z,27.60
2023-02-15T20:45:23.658Z,27.60
2023-02-15T20:48:18.101Z,27.70
2023-02-15T20:51:21.015Z,27.70
2023-02-15T20:54:26.880Z,27.70
2023-02-15T20:57:21.771Z,27.70
2023-02-15T21:00:21.636Z,27.80
2023-02-15T21:03:16.340Z,27.80
2023-02-15T21:06:14.469Z,27.80
2023-02-15T21:09:09.127Z,27.80
2023-02-15T21:12:03.859Z,27.80
2023-02-15T21:14:58.294Z,27.90
2023-02-15T21:17:52.672Z,27.90
2023-02-15T21:20:50.599Z,28.00
2023-02-15T21:23:46.101Z,28.00
2023-02-15T21:26:47.626Z,28.00
2023-02-15T21:29:42.102Z,28.10
2023-02-15T21:32:37.020Z,28.10
2023-02-15T21:35:31.666Z,28.10
2023-02-15T21:38:31.491Z,28.20
2023-02-15T21:41:46.762Z,28.20
2023-02-15T21:45:00.062Z,28.20
2023-02-15T21:47:54.508Z,28.20
2023-02-15T21:51:07.594Z,28.30
2023-02-15T21:54:03.048Z,28.30
2023-02-15T21:56:58.464Z,28.40
2023-02-15T21:59:52.768Z,28.40
2023-02-15T22:02:48.950Z,28.40
2023-02-15T22:05:43.211Z,28.50
2023-02-15T22:08:37.716Z,28.50
2023-02-15T22:11:33.295Z,28.60
2023-02-15T22:14:38.532Z,28.70
2023-02-15T22:17:32.943Z,28.70
2023-02-15T22:20:27.505Z,28.80
2023-02-15T22:23:22.451Z,28.80
2023-02-15T22:26:28.083Z,28.90
2023-02-15T22:29:22.646Z,29.00
2023-02-15T22:32:25.892Z,29.00
2023-02-15T22:35:33.389Z,29.10
2023-02-15T22:38:31.537Z,29.20
2023-02-15T22:41:31.830Z,29.40
2023-02-15T22:44:34.866Z,29.60
2023-02-15T22:47:33.357Z,29.70
2023-02-15T22:50:32.743Z,30.00
2023-02-15T22:53:27.232Z,30.30
2023-02-15T22:56:27.298Z,30.80
2023-02-15T22:59:30.238Z,31.30
2023-02-15T23:02:24.562Z,31.90
2023-02-15T23:05:25.410Z,32.40
2023-02-15T23:08:20.298Z,32.90
2023-02-15T23:11:14.674Z,33.40
2023-02-15T23:14:24.959Z,33.90
2023-02-15T23:17:19.346Z,34.30
2023-02-15T23:20:18.172Z,34.70
2023-02-15T23:23:16.512Z,35.00
2023-02-15T23:26:32.314Z,35.30
2023-02-15T23:29:26.671Z,35.60
2023-02-15T23:32:23.276Z,35.90
2023-02-15T23:35:18.157Z,36.20
2023-02-15T23:38:25.323Z,36.40
2023-02-15T23:41:24.243Z,36.60
2023-02-15T23:44:20.081Z,36.70
2023-02-15T23:47:54.059Z,36.80
2023-02-15T23:50:48.514Z,36.80
2023-02-15T23:53:42.778Z,36.80
2023-02-15T23:56:37.297Z,36.70
2023-02-15T23:59:33.253Z,36.70
